sensor_id;sensor_type;location;lat;lon;timestamp;temperature;humidity
4602;DHT22;2313;48.552;9.370;2023-02-26T00:01:33;0.20;99.90
4602;DHT22;2313;48.552;9.370;2023-02-26T00:04:00;0.30;99.90
4602;DHT22;2313;48.552;9.370;2023-02-26T00:06:27;0.20;99.90
4602;DHT22;2313;48.552;9.370;2023-02-26T00:08:53;0.20;99.90
4602;DHT22;2313;48.552;9.370;2023-02-26T00:11:19;0.20;99.90
4602;DHT22;2313;48.552;9.370;2023-02-26T00:13:45;0.20;99.90
4602;DHT22;2313;48.552;9.370;2023-02-26T00:18:45;0.20;99.90
4602;DHT22;2313;48.552;9.370;2023-02-26T00:21:19;0.20;99.90
4602;DHT22;2313;48.552;9.370;2023-02-26T00:23:45;0.20;99.90
4602;DHT22;2313;48.552;9.370;2023-02-26T00:26:11;0.20;99.90
4602;DHT22;2313;48.552;9.370;2023-02-26T00:28:37;0.20;99.90
4602;DHT22;2313;48.552;9.370;2023-02-26T00:31:03;0.20;99.90
4602;DHT22;2313;48.552;9.370;2023-02-26T00:33:29;0.20;99.90
4602;DHT22;2313;48.552;9.370;2023-02-26T00:38:58;0.20;99.90
4602;DHT22;2313;48.552;9.370;2023-02-26T00:41:28;0.30;99.90
4602;DHT22;2313;48.552;9.370;2023-02-26T00:43:53;0.30;99.90
4602;DHT22;2313;48.552;9.370;2023-02-26T00:46:50;0.20;99.90
4602;DHT22;2313;48.552;9.370;2023-02-26T00:49:44;0.20;99.90
4602;DHT22;2313;48.552;9.370;2023-02-26T00:52:16;0.20;99.90
4602;DHT22;2313;48.552;9.370;2023-02-26T00:54:43;0.30;99.90
4602;DHT22;2313;48.552;9.370;2023-02-26T00:57:08;0.30;99.90
4602;DHT22;2313;48.552;9.370;2023-02-26T00:59:34;0.30;99.90
4602;DHT22;2313;48.552;9.370;2023-02-26T01:02:00;0.30;99.90
4602;DHT22;2313;48.552;9.370;2023-02-26T01:04:25;0.20;99.90
4602;DHT22;2313;48.552;9.370;2023-02-26T01:06:53;0.20;99.90
4602;DHT22;2313;48.552;9.370;2023-02-26T01:09:28;0.20;99.90
4602;DHT22;2313;48.552;9.370;2023-02-26T01:11:57;0.20;99.90
4602;DHT22;2313;48.552;9.370;2023-02-26T01:14:25;0.30;99.90
4602;DHT22;2313;48.552;9.370;2023-02-26T01:22:32;0.10;99.90
4602;DHT22;2313;48.552;9.370;2023-02-26T01:25:09;0.10;99.90
4602;DHT22;2313;48.552;9.370;2023-02-26T01:27:36;0.20;99.90
4602;DHT22;2313;48.552;9.370;2023-02-26T01:30:03;0.10;99.90
4602;DHT22;2313;48.552;9.370;2023-02-26T01:32:45;0.10;99.90
4602;DHT22;2313;48.552;9.370;2023-02-26T01:35:27;0.10;99.90
4602;DHT22;2313;48.552;9.370;2023-02-26T01:38:06;0.10;99.90
4602;DHT22;2313;48.552;9.370;2023-02-26T01:40:57;0.10;99.90
4602;DHT22;2313;48.552;9.370;2023-02-26T01:43:56;0.10;99.90
4602;DHT22;2313;48.552;9.370;2023-02-26T01:48:57;0.20;99.90
4602;DHT22;2313;48.552;9.370;2023-02-26T01:51:48;0.20;99.90
4602;DHT22;2313;48.552;9.370;2023-02-26T01:54:16;0.20;99.90
4602;DHT22;2313;48.552;9.370;2023-02-26T01:56:44;0.20;99.90
4602;DHT22;2313;48.552;9.370;2023-02-26T01:59:14;0.20;99.90
4602;DHT22;2313;48.552;9.370;2023-02-26T02:01:40;0.10;99.90
4602;DHT22;2313;48.552;9.370;2023-02-26T02:04:10;0.10;99.90
4602;DHT22;2313;48.552;9.370;2023-02-26T02:06:37;0.10;99.90
4602;DHT22;2313;48.552;9.370;2023-02-26T02:09:07;0.00;99.90
4602;DHT22;2313;48.552;9.370;2023-02-26T02:11:33;0.00;99.90
4602;DHT22;2313;48.552;9.370;2023-02-26T02:14:11;0.00;99.90
4602;DHT22;2313;48.552;9.370;2023-02-26T02:16:56;-0.10;99.90
4602;DHT22;2313;48.552;9.370;2023-02-26T02:25:37;-0.10;99.90
4602;DHT22;2313;48.552;9.370;2023-02-26T02:33:48;-0.20;99.90
4602;DHT22;2313;48.552;9.370;2023-02-26T02:36:25;-0.10;99.90
4602;DHT22;2313;48.552;9.370;2023-02-26T02:39:20;-0.20;99.90
4602;DHT22;2313;48.552;9.370;2023-02-26T02:44:42;-0.30;99.90
4602;DHT22;2313;48.552;9.370;2023-02-26T02:47:10;-0.30;99.90
4602;DHT22;2313;48.552;9.370;2023-02-26T02:49:58;-0.30;99.90
4602;DHT22;2313;48.552;9.370;2023-02-26T02:52:30;-0.30;99.90
4602;DHT22;2313;48.552;9.370;2023-02-26T02:55:22;-0.30;99.90
4602;DHT22;2313;48.552;9.370;2023-02-26T02:57:57;-0.30;99.90
4602;DHT22;2313;48.552;9.370;2023-02-26T03:00:27;-0.40;99.90
4602;DHT22;2313;48.552;9.370;2023-02-26T03:05:39;-0.30;99.90
4602;DHT22;2313;48.552;9.370;2023-02-26T03:08:08;-0.40;99.90
4602;DHT22;2313;48.552;9.370;2023-02-26T03:10:34;-0.40;99.90
4602;DHT22;2313;48.552;9.370;2023-02-26T03:13:00;-0.50;99.90
4602;DHT22;2313;48.552;9.370;2023-02-26T03:18:47;-0.60;99.90
4602;DHT22;2313;48.552;9.370;2023-02-26T03:27:09;-0.70;99.90
4602;DHT22;2313;48.552;9.370;2023-02-26T03:29:49;-0.80;99.90
4602;DHT22;2313;48.552;9.370;2023-02-26T03:32:25;-0.80;99.90
4602;DHT22;2313;48.552;9.370;2023-02-26T03:34:59;-0.90;99.90
4602;DHT22;2313;48.552;9.370;2023-02-26T03:37:33;-0.90;99.90
4602;DHT22;2313;48.552;9.370;2023-02-26T03:40:03;-1.00;99.90
4602;DHT22;2313;48.552;9.370;2023-02-26T03:42:35;-1.00;99.90
4602;DHT22;2313;48.552;9.370;2023-02-26T03:45:17;-1.10;99.90
4602;DHT22;2313;48.552;9.370;2023-02-26T03:47:47;-1.10;99.90
4602;DHT22;2313;48.552;9.370;2023-02-26T03:50:24;-1.10;99.90
4602;DHT22;2313;48.552;9.370;2023-02-26T03:52:51;-1.10;99.90
4602;DHT22;2313;48.552;9.370;2023-02-26T03:55:33;-1.20;99.90
4602;DHT22;2313;48.552;9.370;2023-02-26T03:57:59;-1.20;99.90
4602;DHT22;2313;48.552;9.370;2023-02-26T04:00:26;-1.20;99.90
4602;DHT22;2313;48.552;9.370;2023-02-26T04:03:13;-1.30;99.90
4602;DHT22;2313;48.552;9.370;2023-02-26T04:05:46;-1.40;99.90
4602;DHT22;2313;48.552;9.370;2023-02-26T04:08:12;-1.40;99.90
4602;DHT22;2313;48.552;9.370;2023-02-26T04:10:51;-1.40;99.90
4602;DHT22;2313;48.552;9.370;2023-02-26T04:13:17;-1.50;99.90
4602;DHT22;2313;48.552;9.370;2023-02-26T04:15:43;-1.50;99.90
4602;DHT22;2313;48.552;9.370;2023-02-26T04:18:09;-1.60;99.90
4602;DHT22;2313;48.552;9.370;2023-02-26T04:20:34;-1.60;99.90
4602;DHT22;2313;48.552;9.370;2023-02-26T04:23:00;-1.60;99.90
4602;DHT22;2313;48.552;9.370;2023-02-26T04:25:25;-1.70;99.90
4602;DHT22;2313;48.552;9.370;2023-02-26T04:27:51;-1.70;99.90
4602;DHT22;2313;48.552;9.370;2023-02-26T04:30:17;-1.70;99.90
4602;DHT22;2313;48.552;9.370;2023-02-26T04:32:42;-1.70;99.90
4602;DHT22;2313;48.552;9.370;2023-02-26T04:35:08;-1.70;99.90
4602;DHT22;2313;48.552;9.370;2023-02-26T04:37:33;-1.70;99.90
4602;DHT22;2313;48.552;9.370;2023-02-26T04:39:59;-1.60;99.90
4602;DHT22;2313;48.552;9.370;2023-02-26T04:42:25;-1.60;99.90
4602;DHT22;2313;48.552;9.370;2023-02-26T04:44:50;-1.70;99.90
4602;DHT22;2313;48.552;9.370;2023-02-26T04:47:16;-1.60;99.90
4602;DHT22;2313;48.552;9.370;2023-02-26T04:49:41;-1.60;99.90
4602;DHT22;2313;48.552;9.370;2023-02-26T04:52:07;-1.60;99.90
4602;DHT22;2313;48.552;9.370;2023-02-26T04:54:32;-1.70;99.90
4602;DHT22;2313;48.552;9.370;2023-02-26T04:56:58;-1.60;99.90
4602;DHT22;2313;48.552;9.370;2023-02-26T04:59:24;-1.60;99.90
4602;DHT22;2313;48.552;9.370;2023-02-26T05:01:49;-1.60;99.90
4602;DHT22;2313;48.552;9.370;2023-02-26T05:04:15;-1.60;99.90
4602;DHT22;2313;48.552;9.370;2023-02-26T05:06:40;-1.70;99.90
4602;DHT22;2313;48.552;9.370;2023-02-26T05:09:06;-1.70;99.90
4602;DHT22;2313;48.552;9.370;2023-02-26T05:11:32;-1.70;99.90
4602;DHT22;2313;48.552;9.370;2023-02-26T05:13:57;-1.80;99.90
4602;DHT22;2313;48.552;9.370;2023-02-26T05:16:23;-1.80;99.90
4602;DHT22;2313;48.552;9.370;2023-02-26T05:18:48;-1.80;99.90
4602;DHT22;2313;48.552;9.370;2023-02-26T05:21:14;-1.80;99.90
4602;DHT22;2313;48.552;9.370;2023-02-26T05:23:40;-1.80;99.90
4602;DHT22;2313;48.552;9.370;2023-02-26T05:26:05;-1.90;99.90
4602;DHT22;2313;48.552;9.370;2023-02-26T05:28:31;-1.90;99.90
4602;DHT22;2313;48.552;9.370;2023-02-26T05:30:58;-1.90;99.90
4602;DHT22;2313;48.552;9.370;2023-02-26T05:33:24;-1.90;99.90
4602;DHT22;2313;48.552;9.370;2023-02-26T05:35:50;-1.90;99.90
4602;DHT22;2313;48.552;9.370;2023-02-26T05:38:19;-2.00;99.90
4602;DHT22;2313;48.552;9.370;2023-02-26T05:40:45;-2.00;99.90
4602;DHT22;2313;48.552;9.370;2023-02-26T05:43:10;-2.00;99.90
4602;DHT22;2313;48.552;9.370;2023-02-26T05:45:36;-2.00;99.90
4602;DHT22;2313;48.552;9.370;2023-02-26T05:48:02;-2.00;99.90
4602;DHT22;2313;48.552;9.370;2023-02-26T05:50:28;-2.00;99.90
4602;DHT22;2313;48.552;9.370;2023-02-26T05:52:55;-2.00;99.90
4602;DHT22;2313;48.552;9.370;2023-02-26T05:55:20;-2.00;99.90
4602;DHT22;2313;48.552;9.370;2023-02-26T05:57:46;-2.00;99.90
4602;DHT22;2313;48.552;9.370;2023-02-26T06:00:13;-2.00;99.90
4602;DHT22;2313;48.552;9.370;2023-02-26T06:02:39;-2.00;99.90
4602;DHT22;2313;48.552;9.370;2023-02-26T06:05:05;-2.00;99.90
4602;DHT22;2313;48.552;9.370;2023-02-26T06:07:34;-2.00;99.90
4602;DHT22;2313;48.552;9.370;2023-02-26T06:10:00;-2.00;99.90
4602;DHT22;2313;48.552;9.370;2023-02-26T06:12:25;-1.90;99.90
4602;DHT22;2313;48.552;9.370;2023-02-26T06:14:51;-1.90;99.90
4602;DHT22;2313;48.552;9.370;2023-02-26T06:17:16;-1.80;99.90
4602;DHT22;2313;48.552;9.370;2023-02-26T06:19:42;-1.80;99.90
4602;DHT22;2313;48.552;9.370;2023-02-26T06:22:09;-1.80;99.90
4602;DHT22;2313;48.552;9.370;2023-02-26T06:24:34;-1.70;99.90
4602;DHT22;2313;48.552;9.370;2023-02-26T06:27:00;-1.70;99.90
4602;DHT22;2313;48.552;9.370;2023-02-26T06:29:25;-1.60;99.90
4602;DHT22;2313;48.552;9.370;2023-02-26T06:31:51;-1.70;99.90
4602;DHT22;2313;48.552;9.370;2023-02-26T06:34:17;-1.70;99.90
4602;DHT22;2313;48.552;9.370;2023-02-26T06:36:43;-1.60;99.90
4602;DHT22;2313;48.552;9.370;2023-02-26T06:39:09;-1.50;99.90
4602;DHT22;2313;48.552;9.370;2023-02-26T06:41:36;-1.60;99.90
4602;DHT22;2313;48.552;9.370;2023-02-26T06:44:02;-1.50;99.90
4602;DHT22;2313;48.552;9.370;2023-02-26T06:46:28;-1.50;99.90
4602;DHT22;2313;48.552;9.370;2023-02-26T06:48:53;-1.50;99.90
4602;DHT22;2313;48.552;9.370;2023-02-26T06:51:19;-1.40;99.90
4602;DHT22;2313;48.552;9.370;2023-02-26T06:53:45;-1.40;99.90
4602;DHT22;2313;48.552;9.370;2023-02-26T06:56:10;-1.30;99.90
4602;DHT22;2313;48.552;9.370;2023-02-26T06:58:36;-1.30;99.90
4602;DHT22;2313;48.552;9.370;2023-02-26T07:01:03;-1.30;99.90
4602;DHT22;2313;48.552;9.370;2023-02-26T07:03:28;-1.30;99.90
4602;DHT22;2313;48.552;9.370;2023-02-26T07:05:54;-1.20;99.90
4602;DHT22;2313;48.552;9.370;2023-02-26T07:08:20;-1.20;99.90
4602;DHT22;2313;48.552;9.370;2023-02-26T07:10:45;-1.20;99.90
4602;DHT22;2313;48.552;9.370;2023-02-26T07:13:14;-1.20;99.90
4602;DHT22;2313;48.552;9.370;2023-02-26T07:15:39;-1.20;99.90
4602;DHT22;2313;48.552;9.370;2023-02-26T07:18:05;-1.20;99.90
4602;DHT22;2313;48.552;9.370;2023-02-26T07:20:31;-1.10;99.90
4602;DHT22;2313;48.552;9.370;2023-02-26T07:22:57;-1.10;99.90
4602;DHT22;2313;48.552;9.370;2023-02-26T07:25:22;-1.10;99.90
4602;DHT22;2313;48.552;9.370;2023-02-26T07:27:49;-1.00;99.90
4602;DHT22;2313;48.552;9.370;2023-02-26T07:30:15;-1.10;99.90
4602;DHT22;2313;48.552;9.370;2023-02-26T07:32:41;-1.10;99.90
4602;DHT22;2313;48.552;9.370;2023-02-26T07:35:06;-1.10;99.90
4602;DHT22;2313;48.552;9.370;2023-02-26T07:37:32;-1.10;99.90
4602;DHT22;2313;48.552;9.370;2023-02-26T07:39:58;-1.10;99.90
4602;DHT22;2313;48.552;9.370;2023-02-26T07:42:23;-1.20;99.90
4602;DHT22;2313;48.552;9.370;2023-02-26T07:44:49;-1.10;99.90
4602;DHT22;2313;48.552;9.370;2023-02-26T07:47:15;-1.20;99.90
4602;DHT22;2313;48.552;9.370;2023-02-26T07:49:40;-1.20;99.90
4602;DHT22;2313;48.552;9.370;2023-02-26T07:52:06;-1.10;99.90
4602;DHT22;2313;48.552;9.370;2023-02-26T07:54:33;-1.20;99.90
4602;DHT22;2313;48.552;9.370;2023-02-26T07:56:59;-1.20;99.90
4602;DHT22;2313;48.552;9.370;2023-02-26T07:59:25;-1.10;99.90
4602;DHT22;2313;48.552;9.370;2023-02-26T08:01:50;-1.10;99.90
4602;DHT22;2313;48.552;9.370;2023-02-26T08:04:16;-1.00;99.90
4602;DHT22;2313;48.552;9.370;2023-02-26T08:06:41;-0.80;99.90
4602;DHT22;2313;48.552;9.370;2023-02-26T08:09:07;-0.70;99.90
4602;DHT22;2313;48.552;9.370;2023-02-26T08:11:33;-0.70;99.90
4602;DHT22;2313;48.552;9.370;2023-02-26T08:14:04;-0.70;99.90
4602;DHT22;2313;48.552;9.370;2023-02-26T08:16:29;-0.70;99.90
4602;DHT22;2313;48.552;9.370;2023-02-26T08:18:55;-0.70;99.90
4602;DHT22;2313;48.552;9.370;2023-02-26T08:21:21;-0.70;99.90
4602;DHT22;2313;48.552;9.370;2023-02-26T08:23:46;-0.70;99.90
4602;DHT22;2313;48.552;9.370;2023-02-26T08:26:13;-0.70;99.90
4602;DHT22;2313;48.552;9.370;2023-02-26T08:28:39;-0.80;99.90
4602;DHT22;2313;48.552;9.370;2023-02-26T08:31:05;-0.90;99.90
4602;DHT22;2313;48.552;9.370;2023-02-26T08:33:32;-0.90;99.90
4602;DHT22;2313;48.552;9.370;2023-02-26T08:35:58;-0.90;99.90
4602;DHT22;2313;48.552;9.370;2023-02-26T08:38:27;-0.90;99.90
4602;DHT22;2313;48.552;9.370;2023-02-26T08:40:53;-0.80;99.90
4602;DHT22;2313;48.552;9.370;2023-02-26T08:43:19;-0.80;99.90
4602;DHT22;2313;48.552;9.370;2023-02-26T08:45:45;-0.70;99.90
4602;DHT22;2313;48.552;9.370;2023-02-26T08:48:11;-0.60;99.90
4602;DHT22;2313;48.552;9.370;2023-02-26T08:50:37;-0.60;99.90
4602;DHT22;2313;48.552;9.370;2023-02-26T08:53:03;-0.60;99.90
4602;DHT22;2313;48.552;9.370;2023-02-26T08:55:28;-0.70;99.90
4602;DHT22;2313;48.552;9.370;2023-02-26T08:57:54;-0.70;99.90
4602;DHT22;2313;48.552;9.370;2023-02-26T09:00:20;-0.70;99.90
4602;DHT22;2313;48.552;9.370;2023-02-26T09:02:46;-0.70;99.90
4602;DHT22;2313;48.552;9.370;2023-02-26T09:05:12;-0.60;99.90
4602;DHT22;2313;48.552;9.370;2023-02-26T09:07:40;-0.40;99.90
4602;DHT22;2313;48.552;9.370;2023-02-26T09:10:06;-0.30;99.90
4602;DHT22;2313;48.552;9.370;2023-02-26T09:12:32;-0.10;99.90
4602;DHT22;2313;48.552;9.370;2023-02-26T09:14:57;-0.10;99.90
4602;DHT22;2313;48.552;9.370;2023-02-26T09:17:25;0.00;99.90
4602;DHT22;2313;48.552;9.370;2023-02-26T09:19:50;0.00;99.90
4602;DHT22;2313;48.552;9.370;2023-02-26T09:22:16;0.00;99.90
4602;DHT22;2313;48.552;9.370;2023-02-26T09:24:42;-0.10;99.90
4602;DHT22;2313;48.552;9.370;2023-02-26T09:27:08;-0.20;99.90
4602;DHT22;2313;48.552;9.370;2023-02-26T09:29:33;-0.20;99.90
4602;DHT22;2313;48.552;9.370;2023-02-26T09:31:59;-0.30;99.90
4602;DHT22;2313;48.552;9.370;2023-02-26T09:34:24;-0.30;99.90
4602;DHT22;2313;48.552;9.370;2023-02-26T09:36:50;-0.30;99.90
4602;DHT22;2313;48.552;9.370;2023-02-26T09:39:15;-0.40;99.90
4602;DHT22;2313;48.552;9.370;2023-02-26T09:41:51;-0.40;99.90
4602;DHT22;2313;48.552;9.370;2023-02-26T09:44:18;-0.30;99.90
4602;DHT22;2313;48.552;9.370;2023-02-26T09:46:55;-0.30;99.90
4602;DHT22;2313;48.552;9.370;2023-02-26T09:54:52;-0.40;99.90
4602;DHT22;2313;48.552;9.370;2023-02-26T09:57:41;-0.30;99.90
4602;DHT22;2313;48.552;9.370;2023-02-26T10:02:53;-0.30;99.90
4602;DHT22;2313;48.552;9.370;2023-02-26T10:05:33;-0.30;99.90
4602;DHT22;2313;48.552;9.370;2023-02-26T10:08:15;-0.20;99.90
4602;DHT22;2313;48.552;9.370;2023-02-26T10:11:04;0.10;99.90
4602;DHT22;2313;48.552;9.370;2023-02-26T10:13:38;0.30;99.90
4602;DHT22;2313;48.552;9.370;2023-02-26T10:16:10;0.40;99.90
4602;DHT22;2313;48.552;9.370;2023-02-26T10:18:41;0.50;99.90
4602;DHT22;2313;48.552;9.370;2023-02-26T10:21:39;0.60;99.90
4602;DHT22;2313;48.552;9.370;2023-02-26T10:24:08;0.70;99.90
4602;DHT22;2313;48.552;9.370;2023-02-26T10:27:11;0.70;99.90
4602;DHT22;2313;48.552;9.370;2023-02-26T10:32:38;0.50;99.90
4602;DHT22;2313;48.552;9.370;2023-02-26T10:35:09;0.50;99.90
4602;DHT22;2313;48.552;9.370;2023-02-26T10:38:01;0.40;99.90
4602;DHT22;2313;48.552;9.370;2023-02-26T10:40:38;0.40;99.90
4602;DHT22;2313;48.552;9.370;2023-02-26T10:43:13;0.40;99.90
4602;DHT22;2313;48.552;9.370;2023-02-26T10:50:56;0.20;99.90
4602;DHT22;2313;48.552;9.370;2023-02-26T10:53:23;0.20;99.90
4602;DHT22;2313;48.552;9.370;2023-02-26T10:55:53;0.20;99.90
4602;DHT22;2313;48.552;9.370;2023-02-26T10:58:24;0.10;99.90
4602;DHT22;2313;48.552;9.370;2023-02-26T11:00:53;0.20;99.90
4602;DHT22;2313;48.552;9.370;2023-02-26T11:03:40;0.30;99.90
4602;DHT22;2313;48.552;9.370;2023-02-26T11:06:07;0.30;99.90
4602;DHT22;2313;48.552;9.370;2023-02-26T11:08:42;0.30;99.90
4602;DHT22;2313;48.552;9.370;2023-02-26T11:11:08;0.40;99.90
4602;DHT22;2313;48.552;9.370;2023-02-26T11:13:36;0.60;99.90
4602;DHT22;2313;48.552;9.370;2023-02-26T11:16:09;0.70;99.90
4602;DHT22;2313;48.552;9.370;2023-02-26T11:18:43;0.60;99.90
4602;DHT22;2313;48.552;9.370;2023-02-26T11:21:16;0.80;99.90
4602;DHT22;2313;48.552;9.370;2023-02-26T11:23:45;0.60;99.90
4602;DHT22;2313;48.552;9.370;2023-02-26T11:26:18;0.70;99.90
4602;DHT22;2313;48.552;9.370;2023-02-26T11:28:49;0.70;99.90
4602;DHT22;2313;48.552;9.370;2023-02-26T11:31:20;0.80;99.90
4602;DHT22;2313;48.552;9.370;2023-02-26T11:33:58;0.80;99.90
4602;DHT22;2313;48.552;9.370;2023-02-26T11:36:27;0.80;99.90
4602;DHT22;2313;48.552;9.370;2023-02-26T11:39:01;0.70;99.90
4602;DHT22;2313;48.552;9.370;2023-02-26T11:41:28;0.70;99.90
4602;DHT22;2313;48.552;9.370;2023-02-26T11:44:15;0.70;99.90
4602;DHT22;2313;48.552;9.370;2023-02-26T11:46:52;0.60;99.90
4602;DHT22;2313;48.552;9.370;2023-02-26T11:49:25;0.60;99.90
4602;DHT22;2313;48.552;9.370;2023-02-26T11:54:37;0.70;99.90
4602;DHT22;2313;48.552;9.370;2023-02-26T11:57:18;0.60;99.90
4602;DHT22;2313;48.552;9.370;2023-02-26T11:59:51;0.60;99.90
4602;DHT22;2313;48.552;9.370;2023-02-26T12:02:21;0.60;99.90
4602;DHT22;2313;48.552;9.370;2023-02-26T12:04:56;0.60;99.90
4602;DHT22;2313;48.552;9.370;2023-02-26T12:07:25;0.50;99.90
4602;DHT22;2313;48.552;9.370;2023-02-26T12:09:51;0.40;99.90
4602;DHT22;2313;48.552;9.370;2023-02-26T12:17:34;0.60;99.90
4602;DHT22;2313;48.552;9.370;2023-02-26T12:20:19;0.60;99.90
4602;DHT22;2313;48.552;9.370;2023-02-26T12:22:54;0.60;99.90
4602;DHT22;2313;48.552;9.370;2023-02-26T12:25:41;0.50;99.90
4602;DHT22;2313;48.552;9.370;2023-02-26T12:34:42;0.70;99.90
4602;DHT22;2313;48.552;9.370;2023-02-26T12:51:17;0.70;99.90
4602;DHT22;2313;48.552;9.370;2023-02-26T13:02:27;0.70;99.90
4602;DHT22;2313;48.552;9.370;2023-02-26T13:05:30;0.80;99.90
4602;DHT22;2313;48.552;9.370;2023-02-26T13:08:35;0.90;99.90
4602;DHT22;2313;48.552;9.370;2023-02-26T13:21:35;1.00;99.90
4602;DHT22;2313;48.552;9.370;2023-02-26T13:26:32;1.20;99.90
4602;DHT22;2313;48.552;9.370;2023-02-26T13:29:13;1.20;99.90
4602;DHT22;2313;48.552;9.370;2023-02-26T13:32:01;1.10;99.90
4602;DHT22;2313;48.552;9.370;2023-02-26T13:34:43;1.10;99.90
4602;DHT22;2313;48.552;9.370;2023-02-26T13:37:25;1.20;99.90
4602;DHT22;2313;48.552;9.370;2023-02-26T13:40:30;1.20;99.90
4602;DHT22;2313;48.552;9.370;2023-02-26T13:42:59;1.30;99.90
4602;DHT22;2313;48.552;9.370;2023-02-26T13:45:56;1.20;99.90
4602;DHT22;2313;48.552;9.370;2023-02-26T13:51:44;1.20;99.90
4602;DHT22;2313;48.552;9.370;2023-02-26T14:01:34;1.10;99.90
4602;DHT22;2313;48.552;9.370;2023-02-26T14:06:45;1.30;99.90
4602;DHT22;2313;48.552;9.370;2023-02-26T14:09:34;1.50;99.90
4602;DHT22;2313;48.552;9.370;2023-02-26T14:17:39;1.40;99.90
4602;DHT22;2313;48.552;9.370;2023-02-26T14:20:12;1.50;99.90
4602;DHT22;2313;48.552;9.370;2023-02-26T14:22:40;1.60;99.90
4602;DHT22;2313;48.552;9.370;2023-02-26T14:27:40;1.60;99.90
4602;DHT22;2313;48.552;9.370;2023-02-26T14:32:52;1.80;99.90
4602;DHT22;2313;48.552;9.370;2023-02-26T14:35:28;1.80;99.90
4602;DHT22;2313;48.552;9.370;2023-02-26T14:38:07;1.90;99.90
4602;DHT22;2313;48.552;9.370;2023-02-26T14:40:38;1.90;99.90
4602;DHT22;2313;48.552;9.370;2023-02-26T14:43:15;1.60;99.90
4602;DHT22;2313;48.552;9.370;2023-02-26T14:45:42;1.20;99.90
4602;DHT22;2313;48.552;9.370;2023-02-26T14:48:17;1.10;99.90
4602;DHT22;2313;48.552;9.370;2023-02-26T14:53:59;0.80;99.90
4602;DHT22;2313;48.552;9.370;2023-02-26T14:59:55;0.90;99.90
4602;DHT22;2313;48.552;9.370;2023-02-26T15:05:42;1.70;99.90
4602;DHT22;2313;48.552;9.370;2023-02-26T15:08:33;1.90;99.90
4602;DHT22;2313;48.552;9.370;2023-02-26T15:14:08;2.20;99.90
4602;DHT22;2313;48.552;9.370;2023-02-26T15:16:52;2.10;99.90
4602;DHT22;2313;48.552;9.370;2023-02-26T15:19:32;1.90;99.90
4602;DHT22;2313;48.552;9.370;2023-02-26T15:22:15;1.90;99.90
4602;DHT22;2313;48.552;9.370;2023-02-26T15:24:43;2.00;99.90
4602;DHT22;2313;48.552;9.370;2023-02-26T15:27:15;2.00;99.90
4602;DHT22;2313;48.552;9.370;2023-02-26T15:29:42;1.90;99.90
4602;DHT22;2313;48.552;9.370;2023-02-26T15:32:26;1.50;99.90
4602;DHT22;2313;48.552;9.370;2023-02-26T15:35:14;1.20;99.90
4602;DHT22;2313;48.552;9.370;2023-02-26T15:37:42;0.90;99.90
4602;DHT22;2313;48.552;9.370;2023-02-26T15:40:13;0.90;99.90
4602;DHT22;2313;48.552;9.370;2023-02-26T15:42:40;0.80;99.90
4602;DHT22;2313;48.552;9.370;2023-02-26T15:45:26;0.80;99.90
4602;DHT22;2313;48.552;9.370;2023-02-26T15:47:58;0.90;99.90
4602;DHT22;2313;48.552;9.370;2023-02-26T15:50:27;0.90;99.90
4602;DHT22;2313;48.552;9.370;2023-02-26T15:52:57;1.00;99.90
4602;DHT22;2313;48.552;9.370;2023-02-26T15:55:24;1.00;99.90
4602;DHT22;2313;48.552;9.370;2023-02-26T15:57:50;1.00;99.90
4602;DHT22;2313;48.552;9.370;2023-02-26T16:00:19;0.80;99.90
4602;DHT22;2313;48.552;9.370;2023-02-26T16:02:51;0.70;99.90
4602;DHT22;2313;48.552;9.370;2023-02-26T16:05:18;0.70;99.90
4602;DHT22;2313;48.552;9.370;2023-02-26T16:07:44;0.70;99.90
4602;DHT22;2313;48.552;9.370;2023-02-26T16:10:17;0.70;99.90
4602;DHT22;2313;48.552;9.370;2023-02-26T16:12:44;0.70;99.90
4602;DHT22;2313;48.552;9.370;2023-02-26T16:15:17;0.60;99.90
4602;DHT22;2313;48.552;9.370;2023-02-26T16:17:47;0.60;99.90
4602;DHT22;2313;48.552;9.370;2023-02-26T16:20:16;0.70;99.90
4602;DHT22;2313;48.552;9.370;2023-02-26T16:22:49;0.70;99.90
4602;DHT22;2313;48.552;9.370;2023-02-26T16:25:39;0.70;99.90
4602;DHT22;2313;48.552;9.370;2023-02-26T16:28:15;0.70;99.90
4602;DHT22;2313;48.552;9.370;2023-02-26T16:30:47;0.80;99.90
4602;DHT22;2313;48.552;9.370;2023-02-26T16:33:16;0.70;99.90
4602;DHT22;2313;48.552;9.370;2023-02-26T16:35:47;0.60;99.90
4602;DHT22;2313;48.552;9.370;2023-02-26T16:38:26;0.60;99.90
4602;DHT22;2313;48.552;9.370;2023-02-26T16:41:07;0.70;99.90
4602;DHT22;2313;48.552;9.370;2023-02-26T16:43:49;0.70;99.90
4602;DHT22;2313;48.552;9.370;2023-02-26T16:49:05;0.70;99.90
4602;DHT22;2313;48.552;9.370;2023-02-26T16:51:37;0.70;99.90
4602;DHT22;2313;48.552;9.370;2023-02-26T16:54:40;0.70;99.90
4602;DHT22;2313;48.552;9.370;2023-02-26T16:57:17;0.80;99.90
4602;DHT22;2313;48.552;9.370;2023-02-26T16:59:50;0.70;99.90
4602;DHT22;2313;48.552;9.370;2023-02-26T17:02:28;0.80;99.90
4602;DHT22;2313;48.552;9.370;2023-02-26T17:05:14;0.80;99.90
4602;DHT22;2313;48.552;9.370;2023-02-26T17:08:20;0.70;99.90
4602;DHT22;2313;48.552;9.370;2023-02-26T17:10:43;0.70;99.90
4602;DHT22;2313;48.552;9.370;2023-02-26T17:13:18;0.70;99.90
4602;DHT22;2313;48.552;9.370;2023-02-26T17:15:45;0.70;99.90
4602;DHT22;2313;48.552;9.370;2023-02-26T17:18:12;0.70;99.90
4602;DHT22;2313;48.552;9.370;2023-02-26T17:20:38;0.70;99.90
4602;DHT22;2313;48.552;9.370;2023-02-26T17:23:05;0.60;99.90
4602;DHT22;2313;48.552;9.370;2023-02-26T17:25:39;0.60;99.90
4602;DHT22;2313;48.552;9.370;2023-02-26T17:28:06;0.60;99.90
4602;DHT22;2313;48.552;9.370;2023-02-26T17:30:32;0.50;99.90
4602;DHT22;2313;48.552;9.370;2023-02-26T17:33:00;0.50;99.90
4602;DHT22;2313;48.552;9.370;2023-02-26T17:35:26;0.50;99.90
4602;DHT22;2313;48.552;9.370;2023-02-26T17:37:53;0.40;99.90
4602;DHT22;2313;48.552;9.370;2023-02-26T17:40:32;0.50;99.90
4602;DHT22;2313;48.552;9.370;2023-02-26T17:43:01;0.40;99.90
4602;DHT22;2313;48.552;9.370;2023-02-26T17:45:28;0.40;99.90
4602;DHT22;2313;48.552;9.370;2023-02-26T17:47:54;0.40;99.90
4602;DHT22;2313;48.552;9.370;2023-02-26T17:52:51;0.50;99.90
4602;DHT22;2313;48.552;9.370;2023-02-26T17:55:17;0.40;99.90
4602;DHT22;2313;48.552;9.370;2023-02-26T17:57:42;0.40;99.90
4602;DHT22;2313;48.552;9.370;2023-02-26T18:00:11;0.40;99.90
4602;DHT22;2313;48.552;9.370;2023-02-26T18:02:39;0.40;99.90
4602;DHT22;2313;48.552;9.370;2023-02-26T18:05:05;0.40;99.90
4602;DHT22;2313;48.552;9.370;2023-02-26T18:07:31;0.40;99.90
4602;DHT22;2313;48.552;9.370;2023-02-26T18:09:57;0.40;99.90
4602;DHT22;2313;48.552;9.370;2023-02-26T18:12:23;0.40;99.90
4602;DHT22;2313;48.552;9.370;2023-02-26T18:14:49;0.40;99.90
4602;DHT22;2313;48.552;9.370;2023-02-26T18:17:22;0.50;99.90
4602;DHT22;2313;48.552;9.370;2023-02-26T18:19:48;0.50;99.90
4602;DHT22;2313;48.552;9.370;2023-02-26T18:22:18;0.40;99.90
4602;DHT22;2313;48.552;9.370;2023-02-26T18:24:45;0.40;99.90
4602;DHT22;2313;48.552;9.370;2023-02-26T18:27:15;0.40;99.90
4602;DHT22;2313;48.552;9.370;2023-02-26T18:29:42;0.30;99.90
4602;DHT22;2313;48.552;9.370;2023-02-26T18:32:12;0.30;99.90
4602;DHT22;2313;48.552;9.370;2023-02-26T18:34:38;0.30;99.90
4602;DHT22;2313;48.552;9.370;2023-02-26T18:37:05;0.30;99.90
4602;DHT22;2313;48.552;9.370;2023-02-26T18:39:30;0.30;99.90
4602;DHT22;2313;48.552;9.370;2023-02-26T18:41:59;0.30;99.90
4602;DHT22;2313;48.552;9.370;2023-02-26T18:44:24;0.30;99.90
4602;DHT22;2313;48.552;9.370;2023-02-26T18:46:52;0.30;99.90
4602;DHT22;2313;48.552;9.370;2023-02-26T18:49:20;0.30;99.90
4602;DHT22;2313;48.552;9.370;2023-02-26T18:51:49;0.30;99.90
4602;DHT22;2313;48.552;9.370;2023-02-26T18:54:15;0.10;99.90
4602;DHT22;2313;48.552;9.370;2023-02-26T18:56:41;0.20;99.90
4602;DHT22;2313;48.552;9.370;2023-02-26T18:59:06;0.20;99.90
4602;DHT22;2313;48.552;9.370;2023-02-26T19:01:32;0.20;99.90